createdAt,value
2023-03-17T00:09:53.953Z,100315.42
2023-03-17T00:19:59.844Z,100314.86
2023-03-17T00:30:06.432Z,100296.02
2023-03-17T00:40:19.033Z,100281.99
2023-03-17T00:50:26.984Z,100278.00
2023-03-17T01:00:32.893Z,100264.81
2023-03-17T01:10:38.973Z,100250.34
2023-03-17T01:20:45.541Z,100245.16
2023-03-17T01:30:52.341Z,100238.18
2023-03-17T01:40:58.090Z,100229.20
2023-03-17T01:51:06.428Z,100225.30
2023-03-17T02:01:12.438Z,100223.45
2023-03-17T02:11:18.227Z,100224.09
2023-03-17T02:21:45.306Z,100219.02
2023-03-17T02:31:51.308Z,100208.66
2023-03-17T02:41:57.269Z,100220.86
2023-03-17T02:52:03.841Z,100218.75
2023-03-17T03:02:09.953Z,100214.92
2023-03-17T03:12:16.296Z,100218.13
2023-03-17T03:22:21.933Z,100229.31
2023-03-17T03:32:26.382Z,100218.15
2023-03-17T03:42:32.248Z,100211.02
2023-03-17T03:52:38.249Z,100214.37
2023-03-17T04:02:45.161Z,100229.83
2023-03-17T04:12:51.241Z,100221.48
2023-03-17T04:22:56.979Z,100217.08
2023-03-17T04:33:01.340Z,100218.45
2023-03-17T04:43:07.372Z,100224.44
2023-03-17T04:53:11.457Z,100225.29
2023-03-17T05:03:26.661Z,100219.14
2023-03-17T05:13:33.440Z,100220.23
2023-03-17T05:23:40.436Z,100235.54
2023-03-17T05:33:46.661Z,100253.91
2023-03-17T05:43:52.437Z,100256.58
2023-03-17T05:53:58.464Z,100251.66
2023-03-17T06:04:04.458Z,100232.98
2023-03-17T06:14:10.293Z,100207.68
2023-03-17T06:24:15.946Z,100195.45
2023-03-17T06:34:22.970Z,100190.95
2023-03-17T06:44:28.683Z,100178.82
2023-03-17T06:54:36.458Z,100184.83
2023-03-17T07:04:42.333Z,100186.40
2023-03-17T07:14:48.240Z,100198.51
2023-03-17T07:24:54.167Z,100218.20
2023-03-17T07:35:00.154Z,100224.51
2023-03-17T07:45:07.956Z,100223.13
2023-03-17T07:55:13.813Z,100214.02
2023-03-17T08:05:19.738Z,100191.56
2023-03-17T08:15:25.953Z,100181.85
2023-03-17T08:25:32.178Z,100175.38
2023-03-17T08:35:38.375Z,100173.61
2023-03-17T08:45:44.433Z,100167.81
2023-03-17T08:55:51.461Z,100150.14
2023-03-17T09:05:58.157Z,100139.12
2023-03-17T09:16:04.200Z,100144.30
2023-03-17T09:26:10.327Z,100129.05
2023-03-17T09:36:15.993Z,100125.02
2023-03-17T09:46:36.542Z,100126.61
2023-03-17T09:56:47.290Z,100118.52
2023-03-17T10:06:56.470Z,100127.59
2023-03-17T10:17:13.671Z,100137.33
2023-03-17T10:27:20.102Z,100135.37
2023-03-17T10:37:29.393Z,100136.26
2023-03-17T10:47:38.231Z,100122.42
2023-03-17T10:57:53.932Z,100114.11
2023-03-17T11:08:11.298Z,100097.11
2023-03-17T11:18:22.960Z,100071.93
2023-03-17T11:28:35.153Z,100067.63
2023-03-17T11:38:51.719Z,100065.48
2023-03-17T11:49:04.448Z,100051.39
2023-03-17T11:59:27.072Z,100063.25
2023-03-17T12:09:37.285Z,100047.05
2023-03-17T12:19:57.415Z,100026.98
2023-03-17T12:30:09.876Z,100007.77
2023-03-17T12:40:21.474Z,99996.23
2023-03-17T12:50:51.927Z,99976.05
2023-03-17T13:01:07.472Z,99973.46
2023-03-17T13:11:28.109Z,99972.04
2023-03-17T13:21:36.419Z,99971.23
2023-03-17T13:31:43.386Z,99962.64
2023-03-17T13:42:17.671Z,99935.05
2023-03-17T13:52:32.293Z,99923.41
2023-03-17T14:02:41.268Z,99916.66
2023-03-17T14:12:52.338Z,99908.92
2023-03-17T14:23:01.057Z,99901.09
2023-03-17T14:33:25.160Z,99884.73
2023-03-17T14:43:31.256Z,99877.50
2023-03-17T14:53:46.834Z,99859.02
2023-03-17T15:04:00.011Z,99844.57
2023-03-17T15:14:21.386Z,99839.35
2023-03-17T15:24:39.692Z,99824.29
2023-03-17T15:34:46.294Z,99817.44
2023-03-17T15:44:53.313Z,99817.75
2023-03-17T15:55:01.493Z,99811.94
2023-03-17T16:05:18.662Z,99813.67
2023-03-17T16:15:27.150Z,99830.89
2023-03-17T16:25:33.752Z,99837.04
2023-03-17T16:35:39.456Z,99845.59
2023-03-17T16:45:45.144Z,99848.60
2023-03-17T16:55:51.772Z,99848.52
2023-03-17T17:05:57.429Z,99854.78
2023-03-17T17:16:05.024Z,99862.95
2023-03-17T17:26:10.862Z,99862.33
2023-03-17T17:36:18.475Z,99865.30
2023-03-17T17:46:24.973Z,99862.33
2023-03-17T17:56:30.898Z,99857.67
2023-03-17T18:06:36.767Z,99856.87
2023-03-17T18:16:43.044Z,99844.98
2023-03-17T18:26:48.730Z,99852.13
2023-03-17T18:36:56.879Z,99851.73
2023-03-17T18:47:02.688Z,99847.11
2023-03-17T18:57:08.525Z,99839.73
2023-03-17T19:07:14.402Z,99834.58
2023-03-17T19:17:20.366Z,99825.15
2023-03-17T19:27:26.379Z,99824.40
2023-03-17T19:37:32.517Z,99818.63
2023-03-17T19:47:38.697Z,99815.51
2023-03-17T19:57:44.531Z,99819.79
2023-03-17T20:07:50.307Z,99822.66
2023-03-17T20:17:56.071Z,99822.75
2023-03-17T20:28:01.826Z,99828.29
2023-03-17T20:38:08.354Z,99835.81
2023-03-17T20:48:14.655Z,99832.40
2023-03-17T20:58:21.429Z,99837.89
2023-03-17T21:08:27.155Z,99840.30
2023-03-17T21:18:32.903Z,99837.52
2023-03-17T21:28:41.602Z,99828.61
2023-03-17T21:38:47.506Z,99816.96
2023-03-17T21:48:54.132Z,99809.68
2023-03-17T21:58:59.952Z,99799.64
2023-03-17T22:09:07.808Z,99794.50
2023-03-17T22:19:13.958Z,99789.29
2023-03-17T22:29:20.908Z,99791.17
2023-03-17T22:39:28.707Z,99782.39
2023-03-17T22:49:35.579Z,99784.46
2023-03-17T22:59:42.625Z,99780.67
2023-03-17T23:09:48.816Z,99774.20
2023-03-17T23:19:55.367Z,99765.88
2023-03-17T23:30:01.232Z,99756.39
2023-03-17T23:40:09.309Z,99753.66
2023-03-17T23:50:16.731Z,99744.59
